createdAt,value
2023-03-10T00:00:44.031Z,6.62
2023-03-10T00:05:56.453Z,6.72
2023-03-10T00:11:00.621Z,6.78
2023-03-10T00:16:05.586Z,6.70
2023-03-10T00:21:08.324Z,6.53
2023-03-10T00:26:10.666Z,6.37
2023-03-10T00:31:13.366Z,6.34
2023-03-10T00:36:17.556Z,6.21
2023-03-10T00:41:20.723Z,6.09
2023-03-10T00:46:34.303Z,6.09
2023-03-10T00:51:37.451Z,6.21
2023-03-10T00:56:39.937Z,6.20
2023-03-10T01:01:42.460Z,6.10
2023-03-10T01:06:47.424Z,5.96
2023-03-10T01:11:50.176Z,5.79
2023-03-10T01:16:52.893Z,5.69
2023-03-10T01:21:55.967Z,5.67
2023-03-10T01:27:00.637Z,5.72
2023-03-10T01:32:03.006Z,5.73
2023-03-10T01:37:05.821Z,5.76
2023-03-10T01:42:08.216Z,5.67
2023-03-10T01:47:11.513Z,5.57
2023-03-10T01:52:13.817Z,5.55
2023-03-10T01:57:16.131Z,5.61
2023-03-10T02:02:19.511Z,5.50
2023-03-10T02:07:22.756Z,5.49
2023-03-10T02:12:25.013Z,5.39
2023-03-10T02:17:37.447Z,5.40
2023-03-10T02:22:40.262Z,5.58
2023-03-10T02:27:42.598Z,5.76
2023-03-10T02:32:45.417Z,5.85
2023-03-10T02:37:50.723Z,5.86
2023-03-10T02:42:53.425Z,5.84
2023-03-10T02:47:56.701Z,5.80
2023-03-10T02:52:59.456Z,5.85
2023-03-10T02:58:02.574Z,5.87
2023-03-10T03:03:05.774Z,5.89
2023-03-10T03:08:08.178Z,5.92
2023-03-10T03:13:20.434Z,5.99
2023-03-10T03:18:33.604Z,6.04
2023-03-10T03:23:36.524Z,6.03
2023-03-10T03:28:39.068Z,6.13
2023-03-10T03:33:42.577Z,6.24
2023-03-10T03:38:45.001Z,6.27
2023-03-10T03:43:48.207Z,6.26
2023-03-10T03:48:51.319Z,6.31
2023-03-10T03:53:53.746Z,6.37
2023-03-10T03:58:56.139Z,6.37
2023-03-10T04:03:58.652Z,6.27
2023-03-10T04:09:01.071Z,6.16
2023-03-10T04:14:03.434Z,6.10
2023-03-10T04:19:07.651Z,6.08
2023-03-10T04:24:10.187Z,6.15
2023-03-10T04:29:15.048Z,6.37
2023-03-10T04:34:17.722Z,6.60
2023-03-10T04:39:20.439Z,6.76
2023-03-10T04:44:30.931Z,7.03
2023-03-10T04:49:33.871Z,7.18
2023-03-10T04:54:36.656Z,7.35
2023-03-10T04:59:39.009Z,7.52
2023-03-10T05:04:42.157Z,7.67
2023-03-10T05:09:45.610Z,7.83
2023-03-10T05:14:48.236Z,7.84
2023-03-10T05:19:50.989Z,7.90
2023-03-10T05:24:53.958Z,8.00
2023-03-10T05:29:57.105Z,7.99
2023-03-10T05:34:59.433Z,7.99
2023-03-10T05:40:01.904Z,8.10
2023-03-10T05:45:05.346Z,8.16
2023-03-10T05:50:08.447Z,8.18
2023-03-10T05:55:10.748Z,8.20
2023-03-10T06:00:13.637Z,8.19
2023-03-10T06:05:25.945Z,8.26
2023-03-10T06:10:28.303Z,8.23
2023-03-10T06:15:34.115Z,8.23
2023-03-10T06:20:36.927Z,8.11
2023-03-10T06:25:39.211Z,8.10
2023-03-10T06:30:42.383Z,8.12
2023-03-10T06:35:44.861Z,8.05
2023-03-10T06:40:47.193Z,7.96
2023-03-10T06:45:49.803Z,8.03
2023-03-10T06:50:52.591Z,8.12
2023-03-10T06:55:55.866Z,8.41
2023-03-10T07:00:59.100Z,8.73
2023-03-10T07:06:11.607Z,9.06
2023-03-10T07:11:25.298Z,9.35
2023-03-10T07:16:28.007Z,9.43
2023-03-10T07:21:32.231Z,9.65
2023-03-10T07:26:34.863Z,9.86
2023-03-10T07:31:37.740Z,10.21
2023-03-10T07:36:40.068Z,10.16
2023-03-10T07:41:52.406Z,10.33
2023-03-10T07:46:55.633Z,10.38
2023-03-10T07:51:59.247Z,10.50
2023-03-10T07:57:01.750Z,10.65
2023-03-10T08:02:14.149Z,10.86
2023-03-10T08:07:17.165Z,10.99
2023-03-10T08:12:29.485Z,11.12
2023-03-10T08:17:33.476Z,11.16
2023-03-10T08:22:36.335Z,11.46
2023-03-10T08:27:39.017Z,11.36
2023-03-10T08:32:41.667Z,11.69
2023-03-10T08:37:44.397Z,11.87
2023-03-10T08:42:48.489Z,11.89
2023-03-10T08:47:51.217Z,11.96
2023-03-10T08:52:53.649Z,12.28
2023-03-10T08:57:56.042Z,12.26
2023-03-10T09:02:58.520Z,12.63
2023-03-10T09:08:01.109Z,12.84
2023-03-10T09:13:13.731Z,13.44
2023-03-10T09:18:17.494Z,13.61
2023-03-10T09:23:29.949Z,13.39
2023-03-10T09:28:32.654Z,13.70
2023-03-10T09:33:35.038Z,14.43
2023-03-10T09:38:37.397Z,14.52
2023-03-10T09:43:39.734Z,14.69
2023-03-10T09:48:42.087Z,14.75
2023-03-10T09:53:48.086Z,14.13
2023-03-10T09:58:51.878Z,13.91
2023-03-10T10:03:54.549Z,13.79
2023-03-10T10:09:04.340Z,13.29
2023-03-10T10:14:13.142Z,12.05
2023-03-10T10:19:18.251Z,10.81
2023-03-10T10:24:21.403Z,10.16
2023-03-10T10:29:23.732Z,10.06
2023-03-10T10:34:26.350Z,9.90
2023-03-10T10:39:31.334Z,9.58
2023-03-10T10:44:37.627Z,9.23
2023-03-10T10:49:40.173Z,8.82
2023-03-10T10:54:43.653Z,8.68
2023-03-10T10:59:46.370Z,8.89
2023-03-10T11:04:48.652Z,9.08
2023-03-10T11:09:51.061Z,9.26
2023-03-10T11:14:53.387Z,9.47
2023-03-10T11:19:56.107Z,9.77
2023-03-10T11:24:58.434Z,10.23
2023-03-10T11:30:01.707Z,10.25
2023-03-10T11:35:04.396Z,10.43
2023-03-10T11:40:07.681Z,10.55
2023-03-10T11:45:10.206Z,10.57
2023-03-10T11:50:13.119Z,10.72
2023-03-10T11:55:15.666Z,11.06
2023-03-10T12:00:18.819Z,11.53
2023-03-10T12:05:31.271Z,11.92
2023-03-10T12:10:42.271Z,12.04
2023-03-10T12:15:49.667Z,12.15
2023-03-10T12:20:52.768Z,12.29
2023-03-10T12:25:55.919Z,12.09
2023-03-10T12:31:06.708Z,12.23
2023-03-10T12:36:09.400Z,12.65
2023-03-10T12:41:15.416Z,12.92
2023-03-10T12:46:17.896Z,13.10
2023-03-10T12:51:30.245Z,12.39
2023-03-10T12:56:36.713Z,12.45
2023-03-10T13:01:43.269Z,12.51
2023-03-10T13:06:48.788Z,12.23
2023-03-10T13:11:51.464Z,12.17
2023-03-10T13:16:54.543Z,12.00
2023-03-10T13:21:56.985Z,11.92
2023-03-10T13:26:59.332Z,11.86
2023-03-10T13:32:01.730Z,11.90
2023-03-10T13:37:05.112Z,11.77
2023-03-10T13:42:07.494Z,11.70
2023-03-10T13:47:09.923Z,11.86
2023-03-10T13:52:12.259Z,11.70
2023-03-10T13:57:14.645Z,11.85
2023-03-10T14:02:16.977Z,11.71
2023-03-10T14:07:19.489Z,11.71
2023-03-10T14:12:24.978Z,11.30
2023-03-10T14:17:27.809Z,10.81
2023-03-10T14:22:30.308Z,10.91
2023-03-10T14:27:33.131Z,10.91
2023-03-10T14:32:36.404Z,10.96
2023-03-10T14:37:38.774Z,11.21
2023-03-10T14:42:41.442Z,11.19
2023-03-10T14:47:44.074Z,10.93
2023-03-10T14:52:46.633Z,11.03
2023-03-10T14:57:48.959Z,10.89
2023-03-10T15:02:52.126Z,10.62
2023-03-10T15:07:55.303Z,9.90
2023-03-10T15:12:57.671Z,9.28
2023-03-10T15:18:00.052Z,8.99
2023-03-10T15:23:03.172Z,8.98
2023-03-10T15:28:08.757Z,8.95
2023-03-10T15:33:11.895Z,8.93
2023-03-10T15:38:14.253Z,8.97
2023-03-10T15:43:17.388Z,8.64
2023-03-10T15:48:20.796Z,8.32
2023-03-10T15:53:24.328Z,8.00
2023-03-10T15:58:27.019Z,7.57
2023-03-10T16:03:30.928Z,7.43
2023-03-10T16:08:37.393Z,7.25
2023-03-10T16:13:39.864Z,7.15
2023-03-10T16:18:42.616Z,7.18
2023-03-10T16:23:45.019Z,7.33
2023-03-10T16:28:47.341Z,7.44
2023-03-10T16:33:50.595Z,7.48
2023-03-10T16:38:53.444Z,7.57
2023-03-10T16:43:56.168Z,7.67
2023-03-10T16:48:58.501Z,7.69
2023-03-10T16:54:00.837Z,7.67
2023-03-10T16:59:13.211Z,7.63
2023-03-10T17:04:16.003Z,7.63
2023-03-10T17:09:19.097Z,7.57
2023-03-10T17:14:21.456Z,7.46
2023-03-10T17:19:28.645Z,7.43
2023-03-10T17:24:31.350Z,7.33
2023-03-10T17:29:34.508Z,7.24
2023-03-10T17:34:36.902Z,7.24
2023-03-10T17:39:40.659Z,7.24
2023-03-10T17:44:43.762Z,7.29
2023-03-10T17:49:46.182Z,7.30
2023-03-10T17:54:49.030Z,7.20
2023-03-10T17:59:51.791Z,7.09
2023-03-10T18:04:54.116Z,7.01
2023-03-10T18:09:58.277Z,6.81
2023-03-10T18:15:01.071Z,6.64
2023-03-10T18:20:06.554Z,6.54
2023-03-10T18:25:10.413Z,6.48
2023-03-10T18:30:12.961Z,6.43
2023-03-10T18:35:18.102Z,6.38
2023-03-10T18:40:21.270Z,6.58
2023-03-10T18:45:23.703Z,6.68
2023-03-10T18:50:26.789Z,6.80
2023-03-10T18:55:29.381Z,6.60
2023-03-10T19:00:33.385Z,4.82
2023-03-10T19:05:36.508Z,4.23
2023-03-10T19:10:40.158Z,4.29
2023-03-10T19:15:44.598Z,4.45
2023-03-10T19:20:47.088Z,4.71
2023-03-10T19:25:49.432Z,4.85
2023-03-10T19:30:51.821Z,4.81
2023-03-10T19:35:56.097Z,4.63
2023-03-10T19:40:58.561Z,4.52
2023-03-10T19:46:01.761Z,4.61
2023-03-10T19:51:05.565Z,4.89
2023-03-10T19:56:10.098Z,5.07
2023-03-10T20:01:13.376Z,5.27
2023-03-10T20:06:15.924Z,5.31
2023-03-10T20:11:19.725Z,5.32
2023-03-10T20:16:24.337Z,5.38
2023-03-10T20:21:27.826Z,5.40
2023-03-10T20:26:30.644Z,5.48
2023-03-10T20:31:34.431Z,5.43
2023-03-10T20:36:39.704Z,5.49
2023-03-10T20:41:44.545Z,5.59
2023-03-10T20:46:47.739Z,5.56
2023-03-10T20:51:50.019Z,5.64
2023-03-10T20:56:53.812Z,5.71
2023-03-10T21:01:56.137Z,5.69
2023-03-10T21:06:58.547Z,5.46
2023-03-10T21:12:01.759Z,4.92
2023-03-10T21:17:05.310Z,4.66
2023-03-10T21:22:08.179Z,4.60
2023-03-10T21:27:11.297Z,4.52
2023-03-10T21:32:14.056Z,4.11
2023-03-10T21:37:17.276Z,3.79
2023-03-10T21:42:20.237Z,3.61
2023-03-10T21:47:23.708Z,3.61
2023-03-10T21:52:27.570Z,3.58
2023-03-10T21:57:30.077Z,3.59
2023-03-10T22:02:35.549Z,3.48
2023-03-10T22:07:38.548Z,3.42
2023-03-10T22:12:40.936Z,3.55
2023-03-10T22:17:43.254Z,3.60
2023-03-10T22:22:46.353Z,3.54
2023-03-10T22:27:48.693Z,3.42
2023-03-10T22:32:51.865Z,3.53
2023-03-10T22:37:55.197Z,3.28
2023-03-10T22:42:57.910Z,2.82
2023-03-10T22:48:01.203Z,2.41
2023-03-10T22:53:13.927Z,2.36
2023-03-10T22:58:16.729Z,2.19
2023-03-10T23:03:19.910Z,2.36
2023-03-10T23:08:22.320Z,2.48
2023-03-10T23:13:25.403Z,2.47
2023-03-10T23:18:37.689Z,2.46
2023-03-10T23:23:43.624Z,2.47
2023-03-10T23:28:47.334Z,2.44
2023-03-10T23:33:49.636Z,2.36
2023-03-10T23:38:52.842Z,2.37
2023-03-10T23:43:55.940Z,2.20
2023-03-10T23:49:03.657Z,2.06
2023-03-10T23:54:06.833Z,1.87
2023-03-10T23:59:09.272Z,1.58
